Wetterdaten: Woche 03.02.25 - 09.02.25 (KW6)
Datum Zeit Temp. I. Temp. A. Feuchte I. Feuchte A. Luftdruck Regen Wind Richtung Sonnenschein Solar Taupunkt Windchill Windböen
03.02.2025 00:00 22,1 °C -3,1 °C 53 % 91 % 1027,9 hPa 0,0 l/m² 0,0 km/h (0 Bft) O 0,00 h 0 W/m² -4,4 °C -3,1 °C 0,0 km/h (0 Bft)
03.02.2025 01:00 22,1 °C -3,6 °C 52 % 91 % 1027,8 hPa 0,0 l/m² 0,0 km/h (0 Bft) O 0,00 h 0 W/m² -4,8 °C -3,6 °C 0,0 km/h (0 Bft)
03.02.2025 02:00 22,1 °C -4,4 °C 52 % 91 % 1028,0 hPa 0,0 l/m² 0,0 km/h (0 Bft) O 0,00 h 0 W/m² -5,7 °C -4,4 °C 0,0 km/h (0 Bft)
03.02.2025 03:00 22,1 °C -5,0 °C 51 % 91 % 1027,9 hPa 0,0 l/m² 0,0 km/h (0 Bft) O 0,00 h 0 W/m² -6,2 °C -5,0 °C 0,0 km/h (0 Bft)
03.02.2025 04:00 22,1 °C -5,3 °C 51 % 91 % 1027,7 hPa 0,0 l/m² 0,0 km/h (0 Bft) O 0,00 h 0 W/m² -6,5 °C -5,3 °C 0,0 km/h (0 Bft)
03.02.2025 05:00 22,1 °C -5,6 °C 51 % 91 % 1027,9 hPa 0,0 l/m² 0,0 km/h (0 Bft) O 0,00 h 0 W/m² -6,8 °C -5,6 °C 0,0 km/h (0 Bft)
03.02.2025 06:00 22,1 °C -5,6 °C 50 % 91 % 1028,3 hPa 0,0 l/m² 0,0 km/h (0 Bft) O 0,00 h 0 W/m² -6,8 °C -5,6 °C 0,0 km/h (0 Bft)
03.02.2025 07:00 21,9 °C -5,9 °C 46 % 91 % 1028,3 hPa 0,0 l/m² 0,0 km/h (0 Bft) O 0,00 h 7 W/m² -7,1 °C -5,9 °C 0,1 km/h (0 Bft)
03.02.2025 08:00 22,0 °C -5,3 °C 47 % 92 % 1029,1 hPa 0,0 l/m² 0,0 km/h (0 Bft) O 0,33 h 47 W/m² -6,4 °C -5,3 °C 0,0 km/h (0 Bft)
03.02.2025 09:00 22,5 °C -3,1 °C 46 % 92 % 1029,5 hPa 0,0 l/m² 0,1 km/h (0 Bft) O 1,00 h 179 W/m² -4,3 °C -3,1 °C 0,3 km/h (0 Bft)
03.02.2025 10:00 23,2 °C -1,1 °C 46 % 90 % 1029,3 hPa 0,0 l/m² 1,0 km/h (0 Bft) O 1,00 h 291 W/m² -2,5 °C -1,1 °C 2,6 km/h (1 Bft)
03.02.2025 11:00 23,7 °C 1,3 °C 45 % 86 % 1029,0 hPa 0,0 l/m² 4,1 km/h (1 Bft) S-SW 1,00 h 356 W/m² -0,7 °C 1,1 °C 6,4 km/h (2 Bft)
03.02.2025 12:00 23,9 °C 3,2 °C 45 % 82 % 1028,8 hPa 0,0 l/m² 4,6 km/h (1 Bft) SW 0,98 h 382 W/m² 0,5 °C 3,2 °C 7,5 km/h (2 Bft)
03.02.2025 13:00 23,9 °C 4,0 °C 45 % 80 % 1028,7 hPa 0,2 l/m² 5,5 km/h (2 Bft) S-SW 1,00 h 357 W/m² 0,8 °C 3,8 °C 8,1 km/h (2 Bft)
03.02.2025 14:00 23,7 °C 4,5 °C 44 % 77 % 1028,1 hPa 0,0 l/m² 9,1 km/h (2 Bft) SW 1,00 h 276 W/m² 0,8 °C 2,2 °C 12,6 km/h (3 Bft)
03.02.2025 15:00 23,4 °C 3,9 °C 45 % 78 % 1027,7 hPa 0,0 l/m² 6,8 km/h (2 Bft) S-SW 1,02 h 124 W/m² 0,3 °C 2,7 °C 9,4 km/h (2 Bft)
03.02.2025 16:00 23,1 °C 3,3 °C 45 % 79 % 1027,8 hPa 0,0 l/m² 0,1 km/h (0 Bft) S-SW 0,30 h 35 W/m² -0,1 °C 3,3 °C 0,4 km/h (0 Bft)
03.02.2025 17:00 22,8 °C 0,4 °C 46 % 84 % 1028,0 hPa 0,0 l/m² 0,0 km/h (0 Bft) S-SW 0,00 h 6 W/m² -1,9 °C 0,4 °C 0,0 km/h (0 Bft)
03.02.2025 18:00 22,7 °C -1,3 °C 48 % 88 % 1028,4 hPa 0,0 l/m² 0,0 km/h (0 Bft) S-SW 0,00 h 0 W/m² -3,1 °C -1,3 °C 0,0 km/h (0 Bft)
03.02.2025 19:00 22,6 °C -2,2 °C 49 % 89 % 1028,6 hPa 0,0 l/m² 0,5 km/h (0 Bft) S-SW 0,00 h 0 W/m² -3,8 °C -2,2 °C 0,9 km/h (0 Bft)
03.02.2025 20:00 22,7 °C -2,6 °C 50 % 91 % 1028,6 hPa 0,0 l/m² 0,4 km/h (0 Bft) S-SW 0,00 h 0 W/m² -3,9 °C -2,6 °C 0,9 km/h (0 Bft)
03.02.2025 21:00 22,8 °C -3,2 °C 49 % 91 % 1028,6 hPa 0,0 l/m² 0,3 km/h (0 Bft) S-SW 0,00 h 0 W/m² -4,4 °C -3,2 °C 0,5 km/h (0 Bft)
03.02.2025 22:00 22,8 °C -3,7 °C 50 % 91 % 1028,7 hPa 0,0 l/m² 0,0 km/h (0 Bft) S-SW 0,00 h 0 W/m² -4,9 °C -3,7 °C 0,0 km/h (0 Bft)
03.02.2025 23:00 22,7 °C -3,9 °C 51 % 92 % 1028,6 hPa 0,0 l/m² 0,3 km/h (0 Bft) S-SW 0,00 h 0 W/m² -5,1 °C -3,9 °C 0,6 km/h (0 Bft)
04.02.2025 00:00 22,7 °C -4,0 °C 51 % 92 % 1028,5 hPa 0,0 l/m² 0,2 km/h (0 Bft) S-SW 0,00 h 0 W/m² -5,1 °C -4,0 °C 0,8 km/h (0 Bft)
04.02.2025 01:00 22,6 °C -3,9 °C 51 % 92 % 1028,4 hPa 0,0 l/m² 0,5 km/h (0 Bft) S-SW 0,00 h 0 W/m² -5,0 °C -3,9 °C 1,2 km/h (1 Bft)
04.02.2025 02:00 22,6 °C -4,4 °C 51 % 92 % 1028,4 hPa 0,0 l/m² 1,2 km/h (1 Bft) S-SW 0,00 h 0 W/m² -5,5 °C -4,4 °C 2,1 km/h (1 Bft)
04.02.2025 03:00 22,6 °C -4,6 °C 50 % 92 % 1028,5 hPa 0,0 l/m² 0,7 km/h (0 Bft) S-SW 0,00 h 0 W/m² -5,7 °C -4,6 °C 1,4 km/h (1 Bft)
04.02.2025 04:00 22,4 °C -5,0 °C 50 % 92 % 1028,6 hPa 0,0 l/m² 0,0 km/h (0 Bft) S-SW 0,00 h 0 W/m² -6,1 °C -5,0 °C 0,0 km/h (0 Bft)
04.02.2025 05:00 22,4 °C -5,5 °C 50 % 92 % 1028,8 hPa 0,0 l/m² 0,5 km/h (0 Bft) S-SW 0,00 h 0 W/m² -6,5 °C -5,5 °C 0,9 km/h (0 Bft)
04.02.2025 06:00 22,4 °C -5,5 °C 49 % 92 % 1028,9 hPa 0,0 l/m² 0,7 km/h (0 Bft) S-SW 0,00 h 0 W/m² -6,6 °C -5,5 °C 1,9 km/h (1 Bft)
04.02.2025 07:00 22,3 °C -4,6 °C 46 % 93 % 1029,0 hPa 0,0 l/m² 4,1 km/h (1 Bft) S-SW 0,00 h 6 W/m² -5,7 °C -5,1 °C 7,0 km/h (2 Bft)
04.02.2025 08:00 22,2 °C -3,4 °C 44 % 93 % 1029,5 hPa 0,0 l/m² 6,6 km/h (2 Bft) S-SW 0,03 h 25 W/m² -4,3 °C -4,7 °C 9,0 km/h (2 Bft)
04.02.2025 09:00 22,7 °C -1,9 °C 45 % 92 % 1029,6 hPa 0,0 l/m² 5,7 km/h (2 Bft) S 1,02 h 165 W/m² -3,0 °C -3,0 °C 9,1 km/h (2 Bft)
04.02.2025 10:00 23,5 °C -0,6 °C 44 % 90 % 1029,7 hPa 0,0 l/m² 12,4 km/h (2 Bft) S-SW 0,98 h 320 W/m² -2,0 °C -5,8 °C 16,4 km/h (3 Bft)
04.02.2025 11:00 23,9 °C 0,4 °C 44 % 87 % 1029,6 hPa 0,0 l/m² 13,4 km/h (3 Bft) S-SW 1,00 h 375 W/m² -1,6 °C -5,5 °C 18,0 km/h (3 Bft)
04.02.2025 12:00 24,1 °C 1,6 °C 44 % 82 % 1029,5 hPa 0,0 l/m² 14,2 km/h (3 Bft) S-SW 1,02 h 398 W/m² -1,1 °C -4,5 °C 18,5 km/h (3 Bft)
04.02.2025 13:00 24,2 °C 2,7 °C 44 % 79 % 1029,1 hPa 0,0 l/m² 10,9 km/h (2 Bft) SW 1,00 h 366 W/m² -0,5 °C -0,9 °C 14,6 km/h (3 Bft)
04.02.2025 14:00 24,0 °C 3,6 °C 44 % 75 % 1028,8 hPa 0,0 l/m² 9,8 km/h (2 Bft) SW 1,00 h 292 W/m² -0,3 °C 0,8 °C 13,1 km/h (3 Bft)
04.02.2025 15:00 23,8 °C 3,5 °C 44 % 72 % 1028,8 hPa 0,0 l/m² 11,2 km/h (2 Bft) S-SW 1,00 h 160 W/m² -1,0 °C -0,4 °C 14,5 km/h (3 Bft)
04.02.2025 16:00 23,5 °C 2,0 °C 44 % 77 % 1028,8 hPa 0,0 l/m² 10,0 km/h (2 Bft) SW 0,28 h 38 W/m² -1,6 °C -1,2 °C 12,4 km/h (2 Bft)
04.02.2025 17:00 23,1 °C 0,1 °C 44 % 82 % 1029,1 hPa 0,0 l/m² 7,0 km/h (2 Bft) SW 0,00 h 6 W/m² -2,6 °C -0,6 °C 8,7 km/h (2 Bft)
04.02.2025 18:00 22,7 °C -0,2 °C 42 % 84 % 1029,4 hPa 0,0 l/m² 5,7 km/h (2 Bft) S-SW 0,00 h 0 W/m² -2,6 °C -0,9 °C 9,6 km/h (2 Bft)
04.02.2025 19:00 22,7 °C -0,5 °C 45 % 84 % 1029,9 hPa 0,0 l/m² 3,1 km/h (1 Bft) SW 0,00 h 0 W/m² -2,8 °C -0,5 °C 5,6 km/h (2 Bft)
04.02.2025 20:00 22,8 °C -1,5 °C 47 % 87 % 1029,9 hPa 0,0 l/m² 6,4 km/h (2 Bft) SW 0,00 h 0 W/m² -3,4 °C -1,7 °C 8,6 km/h (2 Bft)
04.02.2025 21:00 22,9 °C -2,1 °C 47 % 88 % 1030,3 hPa 0,0 l/m² 5,5 km/h (2 Bft) SW 0,00 h 0 W/m² -3,9 °C -2,3 °C 7,6 km/h (2 Bft)
04.02.2025 22:00 22,9 °C -2,3 °C 47 % 88 % 1030,5 hPa 0,0 l/m² 3,3 km/h (1 Bft) S-SW 0,00 h 0 W/m² -3,9 °C -2,3 °C 5,6 km/h (2 Bft)
04.02.2025 23:00 22,8 °C -2,3 °C 47 % 88 % 1030,6 hPa 0,0 l/m² 5,2 km/h (1 Bft) S-SW 0,00 h 0 W/m² -4,0 °C -2,9 °C 7,4 km/h (2 Bft)
05.02.2025 00:00 22,7 °C -2,0 °C 47 % 87 % 1030,8 hPa 0,0 l/m² 2,4 km/h (1 Bft) S 0,00 h 0 W/m² -3,9 °C -2,2 °C 4,4 km/h (1 Bft)
05.02.2025 01:00 22,7 °C -2,2 °C 47 % 86 % 1030,9 hPa 0,0 l/m² 5,4 km/h (2 Bft) S 0,00 h 0 W/m² -4,3 °C -2,5 °C 7,7 km/h (2 Bft)
05.02.2025 02:00 22,6 °C -2,5 °C 47 % 87 % 1031,3 hPa 0,0 l/m² 5,8 km/h (2 Bft) SW 0,00 h 0 W/m² -4,4 °C -3,6 °C 7,8 km/h (2 Bft)
05.02.2025 03:00 22,7 °C -3,3 °C 47 % 88 % 1031,8 hPa 0,0 l/m² 4,0 km/h (1 Bft) SW 0,00 h 0 W/m² -5,0 °C -3,3 °C 5,8 km/h (2 Bft)
05.02.2025 04:00 22,6 °C -3,3 °C 47 % 88 % 1032,1 hPa 0,0 l/m² 1,1 km/h (1 Bft) SW 0,00 h 0 W/m² -4,9 °C -3,3 °C 2,5 km/h (1 Bft)
05.02.2025 05:00 22,6 °C -2,9 °C 46 % 88 % 1032,8 hPa 0,0 l/m² 4,6 km/h (1 Bft) SW 0,00 h 0 W/m² -4,7 °C -3,2 °C 7,5 km/h (2 Bft)
05.02.2025 06:00 22,6 °C -3,1 °C 46 % 87 % 1033,4 hPa 0,0 l/m² 5,7 km/h (2 Bft) S-SW 0,00 h 0 W/m² -4,9 °C -3,3 °C 7,9 km/h (2 Bft)
05.02.2025 07:00 22,4 °C -2,1 °C 42 % 88 % 1033,7 hPa 0,0 l/m² 7,1 km/h (2 Bft) S-SW 0,00 h 5 W/m² -3,8 °C -3,7 °C 10,4 km/h (2 Bft)
05.02.2025 08:00 22,4 °C -1,1 °C 43 % 87 % 1034,4 hPa 0,0 l/m² 7,0 km/h (2 Bft) SW 0,00 h 19 W/m² -2,9 °C -2,8 °C 10,1 km/h (2 Bft)
05.02.2025 09:00 22,6 °C -0,2 °C 44 % 88 % 1035,2 hPa 0,0 l/m² 6,8 km/h (2 Bft) SW 0,10 h 40 W/m² -1,9 °C -0,9 °C 9,9 km/h (2 Bft)
05.02.2025 10:00 22,5 °C 0,7 °C 44 % 88 % 1035,8 hPa 0,0 l/m² 4,5 km/h (1 Bft) SW 0,93 h 70 W/m² -1,1 °C 0,6 °C 6,7 km/h (2 Bft)
05.02.2025 11:00 22,6 °C 1,5 °C 44 % 88 % 1036,3 hPa 0,0 l/m² 5,6 km/h (2 Bft) SW 0,95 h 82 W/m² -0,3 °C 1,2 °C 8,3 km/h (2 Bft)
05.02.2025 12:00 22,5 °C 1,8 °C 45 % 88 % 1036,5 hPa 0,0 l/m² 5,1 km/h (1 Bft) SW 0,97 h 79 W/m² 0,0 °C 1,6 °C 8,0 km/h (2 Bft)
05.02.2025 13:00 22,4 °C 2,6 °C 45 % 88 % 1036,8 hPa 0,0 l/m² 2,1 km/h (1 Bft) S-SW 1,00 h 92 W/m² 0,8 °C 2,6 °C 3,4 km/h (1 Bft)
05.02.2025 14:00 22,3 °C 3,1 °C 45 % 87 % 1037,5 hPa 0,0 l/m² 2,4 km/h (1 Bft) S-SW 0,70 h 55 W/m² 1,2 °C 3,1 °C 4,1 km/h (1 Bft)
05.02.2025 15:00 22,3 °C 3,1 °C 45 % 87 % 1038,0 hPa 0,0 l/m² 0,8 km/h (0 Bft) S-SW 0,00 h 30 W/m² 1,2 °C 3,1 °C 1,7 km/h (1 Bft)
05.02.2025 16:00 22,1 °C 2,9 °C 43 % 88 % 1038,7 hPa 0,0 l/m² 0,0 km/h (0 Bft) S-SW 0,00 h 10 W/m² 1,1 °C 2,9 °C 0,0 km/h (0 Bft)
05.02.2025 17:00 22,1 °C 2,5 °C 44 % 90 % 1039,5 hPa 0,0 l/m² 0,0 km/h (0 Bft) S-SW 0,00 h 0 W/m² 1,0 °C 2,5 °C 0,2 km/h (0 Bft)
05.02.2025 18:00 22,2 °C 2,8 °C 47 % 90 % 1040,6 hPa 0,0 l/m² 1,4 km/h (1 Bft) S-SW 0,00 h 0 W/m² 1,3 °C 2,8 °C 3,7 km/h (1 Bft)
05.02.2025 19:00 22,2 °C 2,5 °C 47 % 90 % 1041,1 hPa 0,0 l/m² 0,4 km/h (0 Bft) W-NW 0,00 h 0 W/m² 1,0 °C 2,5 °C 1,1 km/h (0 Bft)
05.02.2025 20:00 22,2 °C 2,1 °C 47 % 91 % 1041,4 hPa 0,0 l/m² 0,0 km/h (0 Bft) W-NW 0,00 h 0 W/m² 0,8 °C 2,1 °C 0,0 km/h (0 Bft)
05.02.2025 21:00 22,2 °C 1,9 °C 47 % 92 % 1041,5 hPa 0,0 l/m² 0,2 km/h (0 Bft) W-NW 0,00 h 0 W/m² 0,7 °C 1,9 °C 0,3 km/h (0 Bft)
05.02.2025 22:00 22,1 °C 2,0 °C 47 % 92 % 1041,7 hPa 0,0 l/m² 0,2 km/h (0 Bft) W-NW 0,00 h 0 W/m² 0,8 °C 2,0 °C 0,6 km/h (0 Bft)
05.02.2025 23:00 22,0 °C 1,8 °C 47 % 92 % 1041,7 hPa 0,0 l/m² 0,9 km/h (0 Bft) W-NW 0,00 h 0 W/m² 0,6 °C 1,8 °C 1,5 km/h (1 Bft)
06.02.2025 00:00 22,0 °C 1,7 °C 47 % 92 % 1041,7 hPa 0,0 l/m² 0,2 km/h (0 Bft) W-NW 0,00 h 0 W/m² 0,5 °C 1,7 °C 0,7 km/h (0 Bft)
06.02.2025 01:00 21,9 °C 1,7 °C 47 % 91 % 1041,6 hPa 0,0 l/m² 0,3 km/h (0 Bft) W-NW 0,00 h 0 W/m² 0,4 °C 1,7 °C 0,6 km/h (0 Bft)
06.02.2025 02:00 21,9 °C 1,4 °C 47 % 92 % 1041,5 hPa 0,0 l/m² 0,0 km/h (0 Bft) W-NW 0,00 h 0 W/m² 0,2 °C 1,4 °C 0,0 km/h (0 Bft)
06.02.2025 03:00 21,8 °C 1,2 °C 47 % 92 % 1041,4 hPa 0,0 l/m² 0,0 km/h (0 Bft) W-NW 0,00 h 0 W/m² 0,1 °C 1,2 °C 0,0 km/h (0 Bft)
06.02.2025 04:00 21,9 °C 1,3 °C 47 % 93 % 1041,3 hPa 0,0 l/m² 0,0 km/h (0 Bft) W-NW 0,00 h 0 W/m² 0,3 °C 1,3 °C 0,0 km/h (0 Bft)
06.02.2025 05:00 21,8 °C 1,4 °C 47 % 93 % 1041,5 hPa 0,0 l/m² 0,0 km/h (0 Bft) W-NW 0,00 h 0 W/m² 0,4 °C 1,4 °C 0,0 km/h (0 Bft)
06.02.2025 06:00 21,8 °C 1,4 °C 47 % 93 % 1041,4 hPa 0,0 l/m² 0,0 km/h (0 Bft) W-NW 0,00 h 0 W/m² 0,4 °C 1,4 °C 0,0 km/h (0 Bft)
06.02.2025 07:00 21,6 °C 1,3 °C 44 % 93 % 1041,5 hPa 0,0 l/m² 0,0 km/h (0 Bft) W-NW 0,00 h 5 W/m² 0,3 °C 1,3 °C 0,0 km/h (0 Bft)
06.02.2025 08:00 21,7 °C 1,6 °C 45 % 93 % 1041,7 hPa 0,0 l/m² 0,0 km/h (0 Bft) W-NW 0,00 h 13 W/m² 0,7 °C 1,6 °C 0,0 km/h (0 Bft)
06.02.2025 09:00 21,7 °C 2,3 °C 45 % 94 % 1041,8 hPa 0,0 l/m² 2,3 km/h (1 Bft) W-NW 0,00 h 33 W/m² 1,5 °C 2,3 °C 4,7 km/h (1 Bft)
06.02.2025 10:00 21,7 °C 2,4 °C 45 % 94 % 1041,9 hPa 0,0 l/m² 2,8 km/h (1 Bft) NW 0,40 h 51 W/m² 1,5 °C 2,4 °C 5,6 km/h (2 Bft)
06.02.2025 11:00 21,7 °C 2,4 °C 45 % 94 % 1042,0 hPa 0,0 l/m² 3,6 km/h (1 Bft) N-NW 0,93 h 62 W/m² 1,5 °C 2,3 °C 6,3 km/h (2 Bft)
06.02.2025 12:00 21,7 °C 2,7 °C 45 % 94 % 1041,7 hPa 0,0 l/m² 3,3 km/h (1 Bft) N-NW 1,00 h 79 W/m² 1,8 °C 2,6 °C 6,1 km/h (2 Bft)
06.02.2025 13:00 21,7 °C 2,9 °C 46 % 93 % 1041,5 hPa 0,0 l/m² 3,4 km/h (1 Bft) N 0,32 h 48 W/m² 1,9 °C 2,8 °C 6,5 km/h (2 Bft)
06.02.2025 14:00 21,7 °C 3,1 °C 46 % 93 % 1041,1 hPa 0,0 l/m² 4,3 km/h (1 Bft) N-NO 0,57 h 56 W/m² 2,1 °C 3,0 °C 8,6 km/h (2 Bft)
06.02.2025 15:00 21,7 °C 3,0 °C 46 % 93 % 1040,9 hPa 0,0 l/m² 3,5 km/h (1 Bft) NO 0,00 h 27 W/m² 2,0 °C 3,0 °C 6,4 km/h (2 Bft)
06.02.2025 16:00 21,6 °C 3,1 °C 45 % 93 % 1040,6 hPa 0,0 l/m² 3,5 km/h (1 Bft) NO 0,00 h 22 W/m² 2,0 °C 3,0 °C 7,0 km/h (2 Bft)
06.02.2025 17:00 21,6 °C 3,1 °C 46 % 92 % 1040,6 hPa 0,0 l/m² 1,4 km/h (1 Bft) NO 0,00 h 0 W/m² 1,9 °C 3,1 °C 3,5 km/h (1 Bft)
06.02.2025 18:00 21,7 °C 3,1 °C 46 % 92 % 1040,6 hPa 0,0 l/m² 1,0 km/h (0 Bft) NO 0,00 h 0 W/m² 1,9 °C 3,1 °C 3,2 km/h (1 Bft)
06.02.2025 19:00 21,6 °C 3,2 °C 47 % 92 % 1040,6 hPa 0,0 l/m² 1,9 km/h (1 Bft) NO 0,00 h 0 W/m² 2,0 °C 3,2 °C 5,0 km/h (1 Bft)
06.02.2025 20:00 21,7 °C 3,2 °C 47 % 92 % 1040,3 hPa 0,0 l/m² 4,9 km/h (1 Bft) NO 0,00 h 0 W/m² 2,0 °C 3,0 °C 9,0 km/h (2 Bft)
06.02.2025 21:00 21,7 °C 3,0 °C 48 % 91 % 1040,0 hPa 0,0 l/m² 2,2 km/h (1 Bft) NO 0,00 h 0 W/m² 1,7 °C 3,0 °C 4,8 km/h (1 Bft)
06.02.2025 22:00 21,7 °C 3,0 °C 48 % 91 % 1039,8 hPa 0,0 l/m² 5,2 km/h (1 Bft) NO 0,00 h 0 W/m² 1,6 °C 2,5 °C 9,9 km/h (2 Bft)
06.02.2025 23:00 21,6 °C 3,0 °C 48 % 91 % 1039,5 hPa 0,0 l/m² 6,9 km/h (2 Bft) NO 0,00 h 0 W/m² 1,6 °C 2,0 °C 13,3 km/h (3 Bft)
07.02.2025 00:00 21,6 °C 2,7 °C 48 % 91 % 1039,2 hPa 0,0 l/m² 8,8 km/h (2 Bft) O-NO 0,00 h 0 W/m² 1,4 °C 0,6 °C 16,2 km/h (3 Bft)
07.02.2025 01:00 21,6 °C 2,4 °C 48 % 90 % 1038,8 hPa 0,0 l/m² 7,2 km/h (2 Bft) NO 0,00 h 0 W/m² 0,9 °C 1,2 °C 13,9 km/h (3 Bft)
07.02.2025 02:00 21,6 °C 2,2 °C 48 % 90 % 1038,4 hPa 0,0 l/m² 7,2 km/h (2 Bft) NO 0,00 h 0 W/m² 0,7 °C 1,1 °C 14,0 km/h (3 Bft)
07.02.2025 03:00 21,5 °C 2,1 °C 47 % 90 % 1038,1 hPa 0,0 l/m² 12,4 km/h (2 Bft) O-NO 0,00 h 0 W/m² 0,6 °C -2,6 °C 19,2 km/h (3 Bft)
07.02.2025 04:00 21,4 °C 2,1 °C 47 % 90 % 1037,7 hPa 0,0 l/m² 11,4 km/h (2 Bft) NO 0,00 h 0 W/m² 0,6 °C -2,0 °C 19,2 km/h (3 Bft)
07.02.2025 05:00 21,5 °C 1,6 °C 48 % 90 % 1037,2 hPa 0,0 l/m² 5,6 km/h (2 Bft) NO 0,00 h 0 W/m² 0,1 °C 1,0 °C 11,7 km/h (2 Bft)
07.02.2025 06:00 21,5 °C 1,4 °C 47 % 91 % 1036,7 hPa 0,0 l/m² 9,5 km/h (2 Bft) NO 0,00 h 0 W/m² 0,1 °C -1,6 °C 17,0 km/h (3 Bft)
07.02.2025 07:00 21,3 °C 1,8 °C 45 % 90 % 1036,4 hPa 0,0 l/m² 13,5 km/h (3 Bft) O-NO 0,00 h 5 W/m² 0,3 °C -3,8 °C 21,4 km/h (4 Bft)
07.02.2025 08:00 21,3 °C 2,0 °C 45 % 88 % 1036,3 hPa 0,0 l/m² 14,7 km/h (3 Bft) O-NO 0,00 h 16 W/m² 0,2 °C -4,3 °C 24,6 km/h (4 Bft)
07.02.2025 09:00 21,4 °C 2,3 °C 46 % 87 % 1035,9 hPa 0,0 l/m² 14,4 km/h (3 Bft) O-NO 0,60 h 51 W/m² 0,3 °C -3,7 °C 21,8 km/h (4 Bft)
07.02.2025 10:00 21,3 °C 2,7 °C 46 % 84 % 1035,4 hPa 0,0 l/m² 15,9 km/h (3 Bft) O-NO 1,00 h 91 W/m² 0,3 °C -3,9 °C 23,4 km/h (4 Bft)
07.02.2025 11:00 21,4 °C 3,3 °C 46 % 82 % 1034,5 hPa 0,0 l/m² 18,6 km/h (3 Bft) O-NO 1,00 h 149 W/m² 0,5 °C -4,5 °C 26,4 km/h (4 Bft)
07.02.2025 12:00 21,5 °C 3,9 °C 46 % 80 % 1033,3 hPa 0,0 l/m² 18,1 km/h (3 Bft) O-NO 1,00 h 201 W/m² 0,7 °C -3,5 °C 25,8 km/h (4 Bft)
07.02.2025 13:00 21,6 °C 3,9 °C 46 % 79 % 1032,4 hPa 0,0 l/m² 16,9 km/h (3 Bft) O-NO 1,00 h 127 W/m² 0,5 °C -3,1 °C 23,6 km/h (4 Bft)
07.02.2025 14:00 21,7 °C 4,7 °C 45 % 76 % 1031,3 hPa 0,0 l/m² 15,0 km/h (3 Bft) O-NO 1,00 h 174 W/m² 0,8 °C -1,1 °C 22,0 km/h (4 Bft)
07.02.2025 15:00 21,6 °C 4,3 °C 44 % 77 % 1030,6 hPa 0,0 l/m² 14,1 km/h (3 Bft) O-NO 0,58 h 61 W/m² 0,6 °C -1,1 °C 20,5 km/h (4 Bft)
07.02.2025 16:00 21,4 °C 3,9 °C 45 % 79 % 1030,3 hPa 0,0 l/m² 13,3 km/h (3 Bft) O-NO 0,00 h 25 W/m² 0,6 °C -1,1 °C 20,8 km/h (4 Bft)
07.02.2025 17:00 21,4 °C 3,3 °C 45 % 80 % 1029,8 hPa 0,0 l/m² 14,6 km/h (3 Bft) O-NO 0,00 h 0 W/m² 0,2 °C -2,6 °C 21,6 km/h (4 Bft)
07.02.2025 18:00 21,6 °C 3,1 °C 48 % 80 % 1029,4 hPa 0,0 l/m² 14,4 km/h (3 Bft) O-NO 0,00 h 0 W/m² 0,0 °C -2,8 °C 22,1 km/h (4 Bft)
07.02.2025 19:00 21,9 °C 2,8 °C 50 % 81 % 1029,1 hPa 0,0 l/m² 16,3 km/h (3 Bft) O-NO 0,00 h 0 W/m² -0,1 °C -4,2 °C 23,0 km/h (4 Bft)
07.02.2025 20:00 21,9 °C 2,4 °C 49 % 82 % 1028,6 hPa 0,0 l/m² 15,3 km/h (3 Bft) O-NO 0,00 h 0 W/m² -0,3 °C -4,1 °C 21,9 km/h (4 Bft)
07.02.2025 21:00 21,8 °C 2,2 °C 48 % 82 % 1028,2 hPa 0,0 l/m² 16,4 km/h (3 Bft) O-NO 0,00 h 0 W/m² -0,5 °C -5,0 °C 22,9 km/h (4 Bft)
07.02.2025 22:00 21,6 °C 2,1 °C 48 % 82 % 1027,9 hPa 0,0 l/m² 16,7 km/h (3 Bft) O-NO 0,00 h 0 W/m² -0,6 °C -5,3 °C 23,7 km/h (4 Bft)
07.02.2025 23:00 21,5 °C 2,0 °C 48 % 83 % 1027,9 hPa 0,0 l/m² 16,2 km/h (3 Bft) O-NO 0,00 h 0 W/m² -0,6 °C -5,2 °C 22,6 km/h (4 Bft)
08.02.2025 00:00 21,4 °C 1,9 °C 48 % 83 % 1027,8 hPa 0,0 l/m² 15,9 km/h (3 Bft) O-NO 0,00 h 0 W/m² -0,7 °C -5,1 °C 22,6 km/h (4 Bft)
08.02.2025 01:00 21,4 °C 1,7 °C 48 % 83 % 1027,5 hPa 0,0 l/m² 13,4 km/h (3 Bft) O-NO 0,00 h 0 W/m² -0,9 °C -3,9 °C 19,3 km/h (3 Bft)
08.02.2025 02:00 21,4 °C 1,5 °C 48 % 83 % 1027,3 hPa 0,0 l/m² 13,9 km/h (3 Bft) O-NO 0,00 h 0 W/m² -1,0 °C -4,4 °C 19,5 km/h (3 Bft)
08.02.2025 03:00 21,3 °C 1,3 °C 48 % 84 % 1027,1 hPa 0,0 l/m² 15,1 km/h (3 Bft) O-NO 0,00 h 0 W/m² -1,1 °C -5,4 °C 20,6 km/h (4 Bft)
08.02.2025 04:00 21,3 °C 0,9 °C 48 % 84 % 1027,0 hPa 0,0 l/m² 12,5 km/h (2 Bft) O 0,00 h 0 W/m² -1,4 °C -4,2 °C 17,5 km/h (3 Bft)
08.02.2025 05:00 21,3 °C 0,6 °C 48 % 86 % 1027,1 hPa 0,0 l/m² 8,4 km/h (2 Bft) O-NO 0,00 h 0 W/m² -1,5 °C -1,3 °C 12,9 km/h (3 Bft)
08.02.2025 06:00 21,3 °C 0,0 °C 47 % 86 % 1027,0 hPa 0,0 l/m² 5,9 km/h (2 Bft) O-NO 0,00 h 0 W/m² -2,0 °C -0,2 °C 9,9 km/h (2 Bft)
08.02.2025 07:00 21,4 °C -0,7 °C 47 % 88 % 1027,4 hPa 0,0 l/m² 1,6 km/h (1 Bft) O 0,00 h 9 W/m² -2,5 °C -0,7 °C 2,8 km/h (1 Bft)
08.02.2025 08:00 21,6 °C -1,0 °C 48 % 89 % 1027,6 hPa 0,0 l/m² 0,1 km/h (0 Bft) O 0,45 h 51 W/m² -2,6 °C -1,0 °C 0,5 km/h (0 Bft)
08.02.2025 09:00 22,0 °C 0,4 °C 48 % 89 % 1027,5 hPa 0,0 l/m² 3,3 km/h (1 Bft) O 0,98 h 158 W/m² -1,2 °C 0,2 °C 5,0 km/h (1 Bft)
08.02.2025 10:00 22,6 °C 2,6 °C 47 % 84 % 1027,4 hPa 0,0 l/m² 7,9 km/h (2 Bft) O 1,02 h 277 W/m² 0,2 °C 1,0 °C 11,7 km/h (2 Bft)
08.02.2025 11:00 22,9 °C 3,7 °C 43 % 80 % 1027,4 hPa 0,0 l/m² 3,9 km/h (1 Bft) O-SO 1,00 h 346 W/m² 0,6 °C 3,6 °C 6,5 km/h (2 Bft)
08.02.2025 12:00 23,0 °C 4,9 °C 43 % 76 % 1027,1 hPa 0,0 l/m² 4,3 km/h (1 Bft) O 0,98 h 378 W/m² 1,1 °C 4,3 °C 7,0 km/h (2 Bft)
08.02.2025 13:00 22,7 °C 6,1 °C 45 % 74 % 1026,8 hPa 0,0 l/m² 10,0 km/h (2 Bft) O-NO 1,02 h 350 W/m² 1,8 °C 3,3 °C 15,0 km/h (3 Bft)
08.02.2025 14:00 22,4 °C 6,5 °C 44 % 71 % 1026,6 hPa 0,0 l/m² 12,8 km/h (3 Bft) O 1,00 h 273 W/m² 1,7 °C 2,1 °C 17,1 km/h (3 Bft)
08.02.2025 15:00 22,4 °C 6,1 °C 46 % 72 % 1026,5 hPa 0,0 l/m² 12,3 km/h (2 Bft) O-NO 0,90 h 120 W/m² 1,4 °C 1,9 °C 18,2 km/h (3 Bft)
08.02.2025 16:00 22,3 °C 5,0 °C 46 % 74 % 1026,9 hPa 0,0 l/m² 7,9 km/h (2 Bft) O 0,47 h 48 W/m² 0,8 °C 3,7 °C 11,7 km/h (2 Bft)
08.02.2025 17:00 22,2 °C 3,3 °C 47 % 78 % 1027,3 hPa 0,0 l/m² 1,9 km/h (1 Bft) O 0,00 h 8 W/m² -0,1 °C 3,3 °C 3,6 km/h (1 Bft)
08.02.2025 18:00 22,1 °C 0,5 °C 47 % 87 % 1027,5 hPa 0,0 l/m² 2,2 km/h (1 Bft) O 0,00 h 0 W/m² -1,5 °C 0,5 °C 3,9 km/h (1 Bft)
08.02.2025 19:00 22,1 °C 0,8 °C 47 % 85 % 1027,6 hPa 0,0 l/m² 1,3 km/h (1 Bft) O 0,00 h 0 W/m² -1,4 °C 0,8 °C 2,6 km/h (1 Bft)
08.02.2025 20:00 22,1 °C -0,6 °C 47 % 87 % 1027,5 hPa 0,0 l/m² 0,9 km/h (0 Bft) O 0,00 h 0 W/m² -2,5 °C -0,6 °C 2,1 km/h (1 Bft)
08.02.2025 21:00 22,3 °C -1,6 °C 47 % 90 % 1027,7 hPa 0,0 l/m² 0,5 km/h (0 Bft) O-NO 0,00 h 0 W/m² -3,0 °C -1,6 °C 0,9 km/h (0 Bft)
08.02.2025 22:00 22,2 °C -1,9 °C 47 % 91 % 1027,8 hPa 0,0 l/m² 2,2 km/h (1 Bft) O 0,00 h 0 W/m² -3,2 °C -1,9 °C 3,8 km/h (1 Bft)
08.02.2025 23:00 22,2 °C -2,8 °C 47 % 90 % 1027,9 hPa 0,0 l/m² 1,0 km/h (0 Bft) W 0,00 h 0 W/m² -4,1 °C -2,8 °C 1,6 km/h (1 Bft)
09.02.2025 00:00 22,2 °C -3,4 °C 46 % 91 % 1027,8 hPa 0,0 l/m² 0,3 km/h (0 Bft) W 0,00 h 0 W/m² -4,7 °C -3,4 °C 0,8 km/h (0 Bft)
09.02.2025 01:00 22,2 °C -4,0 °C 47 % 91 % 1027,9 hPa 0,0 l/m² 0,0 km/h (0 Bft) W 0,00 h 0 W/m² -5,2 °C -4,0 °C 0,0 km/h (0 Bft)
09.02.2025 02:00 22,2 °C -4,4 °C 47 % 92 % 1028,0 hPa 0,0 l/m² 0,1 km/h (0 Bft) W 0,00 h 0 W/m² -5,5 °C -4,4 °C 0,2 km/h (0 Bft)
09.02.2025 03:00 22,2 °C -4,6 °C 47 % 92 % 1028,2 hPa 0,0 l/m² 0,0 km/h (0 Bft) W 0,00 h 0 W/m² -5,7 °C -4,6 °C 0,1 km/h (0 Bft)
09.02.2025 04:00 22,1 °C -5,1 °C 47 % 92 % 1028,3 hPa 0,0 l/m² 0,0 km/h (0 Bft) W 0,00 h 0 W/m² -6,2 °C -5,1 °C 0,0 km/h (0 Bft)
09.02.2025 05:00 22,1 °C -5,2 °C 47 % 92 % 1028,5 hPa 0,0 l/m² 0,0 km/h (0 Bft) W 0,00 h 0 W/m² -6,3 °C -5,2 °C 0,0 km/h (0 Bft)
09.02.2025 06:00 22,1 °C -5,1 °C 47 % 93 % 1029,0 hPa 0,0 l/m² 0,6 km/h (0 Bft) NW 0,00 h 0 W/m² -6,1 °C -5,1 °C 1,7 km/h (1 Bft)
09.02.2025 07:00 22,1 °C -4,4 °C 47 % 93 % 1029,4 hPa 0,0 l/m² 0,8 km/h (0 Bft) N-NW 0,00 h 8 W/m² -5,4 °C -4,4 °C 2,1 km/h (1 Bft)
09.02.2025 08:00 22,2 °C -3,6 °C 47 % 93 % 1029,7 hPa 0,0 l/m² 0,3 km/h (0 Bft) N-NW 0,30 h 47 W/m² -4,6 °C -3,6 °C 0,9 km/h (0 Bft)
09.02.2025 09:00 22,8 °C -1,6 °C 47 % 92 % 1030,0 hPa 0,0 l/m² 2,1 km/h (1 Bft) N-NW 1,00 h 172 W/m² -2,8 °C -1,6 °C 4,0 km/h (1 Bft)
09.02.2025 10:00 22,9 °C -0,1 °C 43 % 88 % 1030,2 hPa 0,0 l/m² 5,0 km/h (1 Bft) N-NW 1,00 h 254 W/m² -1,7 °C -0,2 °C 7,8 km/h (2 Bft)
09.02.2025 11:00 23,2 °C 1,0 °C 43 % 85 % 1030,2 hPa 0,0 l/m² 4,9 km/h (1 Bft) N-NW 1,00 h 340 W/m² -1,2 °C 0,9 °C 7,8 km/h (2 Bft)
09.02.2025 12:00 23,2 °C 1,8 °C 43 % 83 % 1030,3 hPa 0,0 l/m² 6,1 km/h (2 Bft) N 1,00 h 291 W/m² -0,8 °C 1,2 °C 9,0 km/h (2 Bft)
09.02.2025 13:00 23,2 °C 2,5 °C 45 % 81 % 1030,2 hPa 0,0 l/m² 5,2 km/h (1 Bft) NW 1,00 h 272 W/m² -0,4 °C 2,3 °C 7,9 km/h (2 Bft)
09.02.2025 14:00 23,1 °C 3,1 °C 48 % 78 % 1030,2 hPa 0,0 l/m² 5,1 km/h (1 Bft) N 1,00 h 240 W/m² -0,3 °C 2,8 °C 8,2 km/h (2 Bft)
09.02.2025 15:00 23,0 °C 2,9 °C 50 % 79 % 1030,4 hPa 0,0 l/m² 4,9 km/h (1 Bft) N-NW 1,00 h 94 W/m² -0,4 °C 2,6 °C 7,2 km/h (2 Bft)
09.02.2025 16:00 22,8 °C 2,4 °C 51 % 82 % 1030,5 hPa 0,0 l/m² 2,6 km/h (1 Bft) NW 0,37 h 41 W/m² -0,3 °C 2,4 °C 4,9 km/h (1 Bft)
09.02.2025 17:00 22,5 °C 0,8 °C 49 % 86 % 1030,7 hPa 0,0 l/m² 1,3 km/h (1 Bft) N-NW 0,00 h 9 W/m² -1,2 °C 0,8 °C 2,6 km/h (1 Bft)
09.02.2025 18:00 22,3 °C -0,1 °C 50 % 88 % 1030,8 hPa 0,0 l/m² 0,2 km/h (0 Bft) N-NW 0,00 h 0 W/m² -1,8 °C -0,1 °C 0,6 km/h (0 Bft)
09.02.2025 19:00 22,3 °C -0,9 °C 53 % 90 % 1031,0 hPa 0,0 l/m² 0,9 km/h (0 Bft) W-SW 0,00 h 0 W/m² -2,4 °C -0,9 °C 1,8 km/h (1 Bft)
09.02.2025 20:00 22,5 °C -0,5 °C 54 % 90 % 1031,1 hPa 0,0 l/m² 0,6 km/h (0 Bft) W-SW 0,00 h 0 W/m² -2,0 °C -0,5 °C 1,8 km/h (1 Bft)
09.02.2025 21:00 22,7 °C -0,8 °C 54 % 90 % 1031,1 hPa 0,0 l/m² 0,7 km/h (0 Bft) W-SW 0,00 h 0 W/m² -2,3 °C -0,8 °C 2,0 km/h (1 Bft)
09.02.2025 22:00 22,6 °C -0,8 °C 53 % 90 % 1030,9 hPa 0,0 l/m² 0,5 km/h (0 Bft) W-SW 0,00 h 0 W/m² -2,2 °C -0,8 °C 1,7 km/h (1 Bft)
09.02.2025 23:00 22,5 °C -0,9 °C 53 % 91 % 1030,8 hPa 0,0 l/m² 1,0 km/h (0 Bft) W-SW 0,00 h 0 W/m² -2,2 °C -0,9 °C 2,4 km/h (1 Bft)
Min-Datum _ 08.02.25 03.02.25 04.02.25 08.02.25 08.02.25 - 09.02.25 - - - 03.02.25 07.02.25 09.02.25
_ Min-Zeit 07:00 07:41 18:16 15:05 15:11 - 23:00 - - - 07:41 22:10 23:01
Minimum _ 21,3 °C -6,1 °C 38 % 70 % 1026,4 hPa - 0,0 km/h (0 Bft) - - - -7,3 °C -9,3 °C 0,0 km/h (0 Bft)
Max-Datum _ 04.02.25 08.02.25 09.02.25 06.02.25 06.02.25 03.02.25 07.02.25 - 09.02.25 07.02.25 06.02.25 08.02.25 07.02.25
_ Max-Zeit 13:01 15:03 09:12 15:04 11:12 13:00 13:01 - 15:02 12:44 15:04 13:23 08:49
Maximum _ 24,2 °C 6,8 °C 55 % 94 % 1042,2 hPa 0,2 l/m² 27,6 km/h
O-NO (5 Bft)
- 0,05 h 540 W/m² 2,2 °C 6,4 °C 37,0 km/h
O-NO (5 Bft)
Durchschnitt _ 22,3 °C 0,3 °C 47 % 87 % 1032,2 hPa #0,2 l/m² 4,9 km/h (1 Bft) S-SW #44:30 h 58 W/m² -1,6 °C -1,0 °C 7,6 km/h (2 Bft)
© 2009 Mathias Hoßbach